sensor_id;sensor_type;location;lat;lon;timestamp;temperature;humidity
20231;DHT22;10274;49.022;9.338;2022-08-19T00:01:16;19.20;1.00
20231;DHT22;10274;49.022;9.338;2022-08-19T00:03:43;19.10;1.00
20231;DHT22;10274;49.022;9.338;2022-08-19T00:06:10;19.10;1.00
20231;DHT22;10274;49.022;9.338;2022-08-19T00:08:38;19.20;1.00
20231;DHT22;10274;49.022;9.338;2022-08-19T00:11:06;19.30;1.00
20231;DHT22;10274;49.022;9.338;2022-08-19T00:13:33;19.20;1.00
20231;DHT22;10274;49.022;9.338;2022-08-19T00:16:00;19.10;1.00
20231;DHT22;10274;49.022;9.338;2022-08-19T00:18:27;19.00;1.00
20231;DHT22;10274;49.022;9.338;2022-08-19T00:20:54;18.80;1.00
20231;DHT22;10274;49.022;9.338;2022-08-19T00:23:20;18.80;13.80
20231;DHT22;10274;49.022;9.338;2022-08-19T00:25:48;18.90;4.20
20231;DHT22;10274;49.022;9.338;2022-08-19T00:28:16;19.00;1.00
20231;DHT22;10274;49.022;9.338;2022-08-19T00:30:42;19.00;1.00
20231;DHT22;10274;49.022;9.338;2022-08-19T00:33:09;19.10;1.00
20231;DHT22;10274;49.022;9.338;2022-08-19T00:35:36;18.90;1.00
20231;DHT22;10274;49.022;9.338;2022-08-19T00:38:04;18.90;1.00
20231;DHT22;10274;49.022;9.338;2022-08-19T00:40:32;19.10;1.00
20231;DHT22;10274;49.022;9.338;2022-08-19T00:43:00;19.00;1.00
20231;DHT22;10274;49.022;9.338;2022-08-19T00:45:28;19.00;1.00
20231;DHT22;10274;49.022;9.338;2022-08-19T00:47:57;19.10;1.00
20231;DHT22;10274;49.022;9.338;2022-08-19T00:50:24;19.10;1.00
20231;DHT22;10274;49.022;9.338;2022-08-19T00:52:52;19.10;1.00
20231;DHT22;10274;49.022;9.338;2022-08-19T00:55:22;19.10;1.00
20231;DHT22;10274;49.022;9.338;2022-08-19T00:57:54;19.10;1.00
20231;DHT22;10274;49.022;9.338;2022-08-19T01:00:25;18.90;1.00
20231;DHT22;10274;49.022;9.338;2022-08-19T01:02:53;18.80;1.00
20231;DHT22;10274;49.022;9.338;2022-08-19T01:05:22;18.80;1.00
20231;DHT22;10274;49.022;9.338;2022-08-19T01:07:49;18.90;1.00
20231;DHT22;10274;49.022;9.338;2022-08-19T01:10:19;19.00;1.00
20231;DHT22;10274;49.022;9.338;2022-08-19T01:12:47;19.10;1.00
20231;DHT22;10274;49.022;9.338;2022-08-19T01:15:17;19.10;1.00
20231;DHT22;10274;49.022;9.338;2022-08-19T01:17:47;19.10;1.00
20231;DHT22;10274;49.022;9.338;2022-08-19T01:20:20;19.10;1.00
20231;DHT22;10274;49.022;9.338;2022-08-19T01:22:51;19.00;1.00
20231;DHT22;10274;49.022;9.338;2022-08-19T01:25:20;19.10;1.00
20231;DHT22;10274;49.022;9.338;2022-08-19T01:27:49;19.00;1.00
20231;DHT22;10274;49.022;9.338;2022-08-19T01:30:19;19.00;1.00
20231;DHT22;10274;49.022;9.338;2022-08-19T01:32:47;19.00;1.00
20231;DHT22;10274;49.022;9.338;2022-08-19T01:35:14;19.10;1.00
20231;DHT22;10274;49.022;9.338;2022-08-19T01:37:44;19.20;1.00
20231;DHT22;10274;49.022;9.338;2022-08-19T01:40:12;19.00;1.00
20231;DHT22;10274;49.022;9.338;2022-08-19T01:42:39;18.80;1.00
20231;DHT22;10274;49.022;9.338;2022-08-19T01:45:07;18.80;5.70
20231;DHT22;10274;49.022;9.338;2022-08-19T01:47:35;18.80;1.90
20231;DHT22;10274;49.022;9.338;2022-08-19T01:50:02;18.80;1.20
20231;DHT22;10274;49.022;9.338;2022-08-19T01:52:29;18.80;3.90
20231;DHT22;10274;49.022;9.338;2022-08-19T01:54:56;18.80;1.00
20231;DHT22;10274;49.022;9.338;2022-08-19T01:57:24;18.80;7.10
20231;DHT22;10274;49.022;9.338;2022-08-19T01:59:51;18.80;14.80
20231;DHT22;10274;49.022;9.338;2022-08-19T02:02:18;18.70;27.00
20231;DHT22;10274;49.022;9.338;2022-08-19T02:04:44;18.70;25.50
20231;DHT22;10274;49.022;9.338;2022-08-19T02:07:12;18.70;15.00
20231;DHT22;10274;49.022;9.338;2022-08-19T02:09:38;18.60;21.50
20231;DHT22;10274;49.022;9.338;2022-08-19T02:12:06;18.50;29.10
20231;DHT22;10274;49.022;9.338;2022-08-19T02:14:35;18.60;42.40
20231;DHT22;10274;49.022;9.338;2022-08-19T02:17:02;18.50;26.90
20231;DHT22;10274;49.022;9.338;2022-08-19T02:19:29;18.60;42.60
20231;DHT22;10274;49.022;9.338;2022-08-19T02:21:57;18.60;38.20
20231;DHT22;10274;49.022;9.338;2022-08-19T02:24:23;18.70;12.80
20231;DHT22;10274;49.022;9.338;2022-08-19T02:26:50;18.70;3.20
20231;DHT22;10274;49.022;9.338;2022-08-19T02:29:17;18.70;1.00
20231;DHT22;10274;49.022;9.338;2022-08-19T02:31:45;18.60;21.00
20231;DHT22;10274;49.022;9.338;2022-08-19T02:34:12;18.40;35.90
20231;DHT22;10274;49.022;9.338;2022-08-19T02:36:39;18.40;32.00
20231;DHT22;10274;49.022;9.338;2022-08-19T02:39:05;18.50;23.80
20231;DHT22;10274;49.022;9.338;2022-08-19T02:41:32;18.60;22.00
20231;DHT22;10274;49.022;9.338;2022-08-19T02:44:01;18.60;18.00
20231;DHT22;10274;49.022;9.338;2022-08-19T02:46:31;18.70;14.30
20231;DHT22;10274;49.022;9.338;2022-08-19T02:49:04;18.60;22.20
20231;DHT22;10274;49.022;9.338;2022-08-19T02:51:34;18.60;33.50
20231;DHT22;10274;49.022;9.338;2022-08-19T02:54:02;18.50;28.00
20231;DHT22;10274;49.022;9.338;2022-08-19T02:56:30;18.60;25.80
20231;DHT22;10274;49.022;9.338;2022-08-19T02:58:57;18.60;22.10
20231;DHT22;10274;49.022;9.338;2022-08-19T03:01:25;18.60;16.10
20231;DHT22;10274;49.022;9.338;2022-08-19T03:03:52;18.60;20.60
20231;DHT22;10274;49.022;9.338;2022-08-19T03:06:20;18.60;19.80
20231;DHT22;10274;49.022;9.338;2022-08-19T03:08:48;18.60;23.70
20231;DHT22;10274;49.022;9.338;2022-08-19T03:11:16;18.50;47.40
20231;DHT22;10274;49.022;9.338;2022-08-19T03:13:43;18.40;57.50
20231;DHT22;10274;49.022;9.338;2022-08-19T03:16:11;18.30;64.10
20231;DHT22;10274;49.022;9.338;2022-08-19T03:18:38;18.30;60.60
20231;DHT22;10274;49.022;9.338;2022-08-19T03:21:05;18.20;61.90
20231;DHT22;10274;49.022;9.338;2022-08-19T03:23:34;18.20;62.40
20231;DHT22;10274;49.022;9.338;2022-08-19T03:26:03;18.10;68.30
20231;DHT22;10274;49.022;9.338;2022-08-19T03:28:30;18.10;76.40
20231;DHT22;10274;49.022;9.338;2022-08-19T03:30:59;18.20;80.00
20231;DHT22;10274;49.022;9.338;2022-08-19T03:33:28;18.20;64.40
20231;DHT22;10274;49.022;9.338;2022-08-19T03:36:04;18.30;54.00
20231;DHT22;10274;49.022;9.338;2022-08-19T03:38:31;18.30;46.60
20231;DHT22;10274;49.022;9.338;2022-08-19T03:41:02;18.30;48.20
20231;DHT22;10274;49.022;9.338;2022-08-19T03:43:29;18.30;49.30
20231;DHT22;10274;49.022;9.338;2022-08-19T03:46:03;18.30;53.70
20231;DHT22;10274;49.022;9.338;2022-08-19T03:48:32;18.20;61.70
20231;DHT22;10274;49.022;9.338;2022-08-19T03:50:59;18.20;71.50
20231;DHT22;10274;49.022;9.338;2022-08-19T03:53:27;18.20;69.80
20231;DHT22;10274;49.022;9.338;2022-08-19T03:55:54;18.20;78.30
20231;DHT22;10274;49.022;9.338;2022-08-19T03:58:23;18.20;72.10
20231;DHT22;10274;49.022;9.338;2022-08-19T04:00:49;18.20;75.40
20231;DHT22;10274;49.022;9.338;2022-08-19T04:03:16;18.10;69.70
20231;DHT22;10274;49.022;9.338;2022-08-19T04:05:44;18.10;67.90
20231;DHT22;10274;49.022;9.338;2022-08-19T04:08:11;18.00;79.10
20231;DHT22;10274;49.022;9.338;2022-08-19T04:10:38;18.10;89.80
20231;DHT22;10274;49.022;9.338;2022-08-19T04:13:05;18.10;85.70
20231;DHT22;10274;49.022;9.338;2022-08-19T04:15:39;18.20;77.30
20231;DHT22;10274;49.022;9.338;2022-08-19T04:18:07;18.20;73.40
20231;DHT22;10274;49.022;9.338;2022-08-19T04:20:39;18.20;70.50
20231;DHT22;10274;49.022;9.338;2022-08-19T04:23:05;18.20;88.60
20231;DHT22;10274;49.022;9.338;2022-08-19T04:25:36;18.10;86.10
20231;DHT22;10274;49.022;9.338;2022-08-19T04:28:03;18.10;89.10
20231;DHT22;10274;49.022;9.338;2022-08-19T04:30:30;18.00;85.00
20231;DHT22;10274;49.022;9.338;2022-08-19T04:32:58;18.00;82.30
20231;DHT22;10274;49.022;9.338;2022-08-19T04:35:25;18.00;83.80
20231;DHT22;10274;49.022;9.338;2022-08-19T04:37:52;18.00;81.60
20231;DHT22;10274;49.022;9.338;2022-08-19T04:40:18;18.10;90.50
20231;DHT22;10274;49.022;9.338;2022-08-19T04:43:02;18.10;93.30
20231;DHT22;10274;49.022;9.338;2022-08-19T04:45:29;18.10;93.80
20231;DHT22;10274;49.022;9.338;2022-08-19T04:47:57;18.00;90.20
20231;DHT22;10274;49.022;9.338;2022-08-19T04:50:26;18.00;88.40
20231;DHT22;10274;49.022;9.338;2022-08-19T04:52:52;18.10;86.00
20231;DHT22;10274;49.022;9.338;2022-08-19T04:55:20;18.10;86.50
20231;DHT22;10274;49.022;9.338;2022-08-19T04:57:47;18.20;83.10
20231;DHT22;10274;49.022;9.338;2022-08-19T05:00:14;18.30;65.10
20231;DHT22;10274;49.022;9.338;2022-08-19T05:02:41;18.30;54.30
20231;DHT22;10274;49.022;9.338;2022-08-19T05:05:09;18.30;62.00
20231;DHT22;10274;49.022;9.338;2022-08-19T05:07:36;18.30;91.70
20231;DHT22;10274;49.022;9.338;2022-08-19T05:10:03;18.40;83.40
20231;DHT22;10274;49.022;9.338;2022-08-19T05:12:30;18.50;82.60
20231;DHT22;10274;49.022;9.338;2022-08-19T05:14:58;18.50;79.40
20231;DHT22;10274;49.022;9.338;2022-08-19T05:17:26;18.60;58.90
20231;DHT22;10274;49.022;9.338;2022-08-19T05:19:53;18.70;31.30
20231;DHT22;10274;49.022;9.338;2022-08-19T05:22:53;18.80;18.90
20231;DHT22;10274;49.022;9.338;2022-08-19T05:25:21;18.90;12.20
20231;DHT22;10274;49.022;9.338;2022-08-19T05:27:49;18.90;11.00
20231;DHT22;10274;49.022;9.338;2022-08-19T05:30:16;19.00;5.40
20231;DHT22;10274;49.022;9.338;2022-08-19T05:32:43;19.00;2.90
20231;DHT22;10274;49.022;9.338;2022-08-19T05:35:10;19.10;3.60
20231;DHT22;10274;49.022;9.338;2022-08-19T05:37:37;19.20;2.00
20231;DHT22;10274;49.022;9.338;2022-08-19T05:40:08;19.20;12.10
20231;DHT22;10274;49.022;9.338;2022-08-19T05:42:35;19.20;1.90
20231;DHT22;10274;49.022;9.338;2022-08-19T05:45:02;19.20;1.00
20231;DHT22;10274;49.022;9.338;2022-08-19T05:47:30;19.30;1.00
20231;DHT22;10274;49.022;9.338;2022-08-19T05:49:57;19.30;1.00
20231;DHT22;10274;49.022;9.338;2022-08-19T05:52:24;19.30;1.00
20231;DHT22;10274;49.022;9.338;2022-08-19T05:54:53;19.30;1.00
20231;DHT22;10274;49.022;9.338;2022-08-19T05:57:22;19.30;1.00
20231;DHT22;10274;49.022;9.338;2022-08-19T05:59:49;19.30;1.00
20231;DHT22;10274;49.022;9.338;2022-08-19T06:02:16;19.40;1.00
20231;DHT22;10274;49.022;9.338;2022-08-19T06:04:43;19.40;1.00
20231;DHT22;10274;49.022;9.338;2022-08-19T06:07:10;19.40;1.00
20231;DHT22;10274;49.022;9.338;2022-08-19T06:09:36;19.30;1.00
20231;DHT22;10274;49.022;9.338;2022-08-19T06:12:03;19.30;1.00
20231;DHT22;10274;49.022;9.338;2022-08-19T06:14:33;19.30;1.00
20231;DHT22;10274;49.022;9.338;2022-08-19T06:17:00;19.30;1.00
20231;DHT22;10274;49.022;9.338;2022-08-19T06:19:29;19.40;1.00
20231;DHT22;10274;49.022;9.338;2022-08-19T06:21:58;19.40;1.00
20231;DHT22;10274;49.022;9.338;2022-08-19T06:24:27;19.50;1.00
20231;DHT22;10274;49.022;9.338;2022-08-19T06:26:55;19.50;1.00
20231;DHT22;10274;49.022;9.338;2022-08-19T06:29:24;19.60;1.00
20231;DHT22;10274;49.022;9.338;2022-08-19T06:31:56;19.60;1.00
20231;DHT22;10274;49.022;9.338;2022-08-19T06:34:24;19.70;1.00
20231;DHT22;10274;49.022;9.338;2022-08-19T06:36:52;19.80;1.00
20231;DHT22;10274;49.022;9.338;2022-08-19T06:39:22;19.80;1.00
20231;DHT22;10274;49.022;9.338;2022-08-19T06:41:51;19.90;1.00
20231;DHT22;10274;49.022;9.338;2022-08-19T06:44:21;20.00;1.00
20231;DHT22;10274;49.022;9.338;2022-08-19T06:46:49;20.00;1.00
20231;DHT22;10274;49.022;9.338;2022-08-19T06:49:17;20.10;1.00
20231;DHT22;10274;49.022;9.338;2022-08-19T06:51:45;20.00;1.00
20231;DHT22;10274;49.022;9.338;2022-08-19T06:54:13;20.00;1.00
20231;DHT22;10274;49.022;9.338;2022-08-19T06:56:41;20.10;1.00
20231;DHT22;10274;49.022;9.338;2022-08-19T06:59:10;20.10;1.00
20231;DHT22;10274;49.022;9.338;2022-08-19T07:01:38;20.30;1.00
20231;DHT22;10274;49.022;9.338;2022-08-19T07:04:06;20.40;1.00
20231;DHT22;10274;49.022;9.338;2022-08-19T07:06:35;20.60;1.00
20231;DHT22;10274;49.022;9.338;2022-08-19T07:09:03;20.70;1.00
20231;DHT22;10274;49.022;9.338;2022-08-19T07:11:30;20.70;1.00
20231;DHT22;10274;49.022;9.338;2022-08-19T07:13:57;20.70;1.00
20231;DHT22;10274;49.022;9.338;2022-08-19T07:16:24;20.80;1.00
20231;DHT22;10274;49.022;9.338;2022-08-19T07:18:53;20.80;1.00
20231;DHT22;10274;49.022;9.338;2022-08-19T07:21:22;20.80;1.00
20231;DHT22;10274;49.022;9.338;2022-08-19T07:23:51;20.90;1.00
20231;DHT22;10274;49.022;9.338;2022-08-19T07:26:20;20.80;1.00
20231;DHT22;10274;49.022;9.338;2022-08-19T07:28:48;20.80;1.00
20231;DHT22;10274;49.022;9.338;2022-08-19T07:31:17;20.80;1.00
20231;DHT22;10274;49.022;9.338;2022-08-19T07:33:45;20.80;1.00
20231;DHT22;10274;49.022;9.338;2022-08-19T07:36:14;20.80;1.00
20231;DHT22;10274;49.022;9.338;2022-08-19T07:38:43;20.70;1.00
20231;DHT22;10274;49.022;9.338;2022-08-19T07:41:13;20.70;1.00
20231;DHT22;10274;49.022;9.338;2022-08-19T07:43:40;20.80;1.00
20231;DHT22;10274;49.022;9.338;2022-08-19T07:46:09;20.80;1.00
20231;DHT22;10274;49.022;9.338;2022-08-19T07:48:35;20.80;1.00
20231;DHT22;10274;49.022;9.338;2022-08-19T07:51:04;20.90;1.00
20231;DHT22;10274;49.022;9.338;2022-08-19T07:53:31;20.80;1.00
20231;DHT22;10274;49.022;9.338;2022-08-19T07:55:59;20.90;1.00
20231;DHT22;10274;49.022;9.338;2022-08-19T07:58:32;20.90;1.00
20231;DHT22;10274;49.022;9.338;2022-08-19T08:00:59;20.90;1.00
20231;DHT22;10274;49.022;9.338;2022-08-19T08:03:27;20.90;1.00
20231;DHT22;10274;49.022;9.338;2022-08-19T08:06:08;21.00;1.00
20231;DHT22;10274;49.022;9.338;2022-08-19T08:08:52;21.00;1.00
20231;DHT22;10274;49.022;9.338;2022-08-19T08:11:37;21.00;1.00
20231;DHT22;10274;49.022;9.338;2022-08-19T08:14:05;21.00;1.00
20231;DHT22;10274;49.022;9.338;2022-08-19T08:16:34;21.00;1.00
20231;DHT22;10274;49.022;9.338;2022-08-19T08:19:03;21.00;1.00
20231;DHT22;10274;49.022;9.338;2022-08-19T08:21:30;21.10;1.00
20231;DHT22;10274;49.022;9.338;2022-08-19T08:23:57;21.10;1.00
20231;DHT22;10274;49.022;9.338;2022-08-19T08:26:24;21.20;1.00
20231;DHT22;10274;49.022;9.338;2022-08-19T08:28:51;21.20;99.90
20231;DHT22;10274;49.022;9.338;2022-08-19T08:31:19;21.30;99.90
20231;DHT22;10274;49.022;9.338;2022-08-19T08:33:47;21.40;99.90
20231;DHT22;10274;49.022;9.338;2022-08-19T08:36:14;21.40;99.90
20231;DHT22;10274;49.022;9.338;2022-08-19T08:38:41;21.40;99.90
20231;DHT22;10274;49.022;9.338;2022-08-19T08:41:14;21.50;99.90
20231;DHT22;10274;49.022;9.338;2022-08-19T08:43:46;21.60;99.90
20231;DHT22;10274;49.022;9.338;2022-08-19T08:46:17;21.60;99.90
20231;DHT22;10274;49.022;9.338;2022-08-19T08:48:50;21.60;99.90
20231;DHT22;10274;49.022;9.338;2022-08-19T08:51:22;21.60;99.90
20231;DHT22;10274;49.022;9.338;2022-08-19T08:53:51;21.70;99.90
20231;DHT22;10274;49.022;9.338;2022-08-19T08:56:19;21.70;99.90
20231;DHT22;10274;49.022;9.338;2022-08-19T08:58:53;21.80;99.90
20231;DHT22;10274;49.022;9.338;2022-08-19T09:01:20;21.90;99.90
20231;DHT22;10274;49.022;9.338;2022-08-19T09:03:49;22.00;35.20
20231;DHT22;10274;49.022;9.338;2022-08-19T09:06:23;22.20;33.70
20231;DHT22;10274;49.022;9.338;2022-08-19T09:09:00;22.30;1.00
20231;DHT22;10274;49.022;9.338;2022-08-19T09:11:40;22.40;1.00
20231;DHT22;10274;49.022;9.338;2022-08-19T09:16:58;22.50;1.00
20231;DHT22;10274;49.022;9.338;2022-08-19T09:19:27;22.40;1.00
20231;DHT22;10274;49.022;9.338;2022-08-19T09:21:54;22.40;1.00
20231;DHT22;10274;49.022;9.338;2022-08-19T09:24:20;22.30;1.00
20231;DHT22;10274;49.022;9.338;2022-08-19T09:26:47;22.30;1.00
20231;DHT22;10274;49.022;9.338;2022-08-19T09:29:14;22.30;1.00
20231;DHT22;10274;49.022;9.338;2022-08-19T09:31:41;22.20;1.00
20231;DHT22;10274;49.022;9.338;2022-08-19T09:34:08;22.20;1.00
20231;DHT22;10274;49.022;9.338;2022-08-19T09:36:36;22.20;1.00
20231;DHT22;10274;49.022;9.338;2022-08-19T09:39:05;22.30;1.00
20231;DHT22;10274;49.022;9.338;2022-08-19T09:41:32;22.20;1.00
20231;DHT22;10274;49.022;9.338;2022-08-19T09:43:59;22.30;1.00
20231;DHT22;10274;49.022;9.338;2022-08-19T09:46:28;22.30;1.00
20231;DHT22;10274;49.022;9.338;2022-08-19T09:49:00;22.20;1.00
20231;DHT22;10274;49.022;9.338;2022-08-19T09:51:27;22.30;1.00
20231;DHT22;10274;49.022;9.338;2022-08-19T09:53:59;22.30;1.00
20231;DHT22;10274;49.022;9.338;2022-08-19T09:56:27;22.40;1.00
20231;DHT22;10274;49.022;9.338;2022-08-19T09:58:54;22.40;1.00
20231;DHT22;10274;49.022;9.338;2022-08-19T10:01:24;22.50;1.00
20231;DHT22;10274;49.022;9.338;2022-08-19T10:03:53;22.50;1.00
20231;DHT22;10274;49.022;9.338;2022-08-19T10:06:21;22.50;1.00
20231;DHT22;10274;49.022;9.338;2022-08-19T10:08:49;22.40;1.00
20231;DHT22;10274;49.022;9.338;2022-08-19T10:11:19;22.40;1.00
20231;DHT22;10274;49.022;9.338;2022-08-19T10:13:46;22.40;1.00
20231;DHT22;10274;49.022;9.338;2022-08-19T10:16:15;22.40;1.00
20231;DHT22;10274;49.022;9.338;2022-08-19T10:18:43;22.50;1.00
20231;DHT22;10274;49.022;9.338;2022-08-19T10:21:12;22.50;1.00
20231;DHT22;10274;49.022;9.338;2022-08-19T10:23:41;22.60;1.00
20231;DHT22;10274;49.022;9.338;2022-08-19T10:26:09;22.70;1.00
20231;DHT22;10274;49.022;9.338;2022-08-19T10:28:38;22.80;99.90
20231;DHT22;10274;49.022;9.338;2022-08-19T10:31:06;23.10;99.90
20231;DHT22;10274;49.022;9.338;2022-08-19T10:33:34;23.20;99.90
20231;DHT22;10274;49.022;9.338;2022-08-19T10:36:01;23.20;47.40
20231;DHT22;10274;49.022;9.338;2022-08-19T10:38:28;23.20;86.70
20231;DHT22;10274;49.022;9.338;2022-08-19T10:40:55;23.10;21.00
20231;DHT22;10274;49.022;9.338;2022-08-19T10:43:22;23.00;9.70
20231;DHT22;10274;49.022;9.338;2022-08-19T10:45:53;23.00;91.90
20231;DHT22;10274;49.022;9.338;2022-08-19T10:48:22;23.10;1.00
20231;DHT22;10274;49.022;9.338;2022-08-19T10:50:49;23.30;1.00
20231;DHT22;10274;49.022;9.338;2022-08-19T10:53:33;23.50;1.00
20231;DHT22;10274;49.022;9.338;2022-08-19T10:55:59;23.50;1.00
20231;DHT22;10274;49.022;9.338;2022-08-19T10:58:44;23.40;1.00
20231;DHT22;10274;49.022;9.338;2022-08-19T11:01:12;23.40;99.90
20231;DHT22;10274;49.022;9.338;2022-08-19T11:03:38;23.30;1.00
20231;DHT22;10274;49.022;9.338;2022-08-19T11:06:07;23.30;99.90
20231;DHT22;10274;49.022;9.338;2022-08-19T11:08:34;23.30;1.00
20231;DHT22;10274;49.022;9.338;2022-08-19T11:11:04;23.40;1.00
20231;DHT22;10274;49.022;9.338;2022-08-19T11:13:33;23.50;1.00
20231;DHT22;10274;49.022;9.338;2022-08-19T11:16:04;23.60;1.00
20231;DHT22;10274;49.022;9.338;2022-08-19T11:18:35;23.80;99.90
20231;DHT22;10274;49.022;9.338;2022-08-19T11:21:07;24.00;1.00
20231;DHT22;10274;49.022;9.338;2022-08-19T11:23:34;24.00;99.90
20231;DHT22;10274;49.022;9.338;2022-08-19T11:26:01;24.00;1.00
20231;DHT22;10274;49.022;9.338;2022-08-19T11:28:28;24.10;1.00
20231;DHT22;10274;49.022;9.338;2022-08-19T11:30:54;24.10;1.00
20231;DHT22;10274;49.022;9.338;2022-08-19T11:33:21;24.10;1.00
20231;DHT22;10274;49.022;9.338;2022-08-19T11:35:49;24.20;99.90
20231;DHT22;10274;49.022;9.338;2022-08-19T11:38:16;24.30;1.00
20231;DHT22;10274;49.022;9.338;2022-08-19T11:40:43;24.40;1.00
20231;DHT22;10274;49.022;9.338;2022-08-19T11:43:10;24.50;99.90
20231;DHT22;10274;49.022;9.338;2022-08-19T11:45:37;24.60;99.90
20231;DHT22;10274;49.022;9.338;2022-08-19T11:48:04;24.60;99.90
20231;DHT22;10274;49.022;9.338;2022-08-19T11:50:30;24.60;99.90
20231;DHT22;10274;49.022;9.338;2022-08-19T11:52:58;24.60;99.90
20231;DHT22;10274;49.022;9.338;2022-08-19T11:55:25;24.60;1.00
20231;DHT22;10274;49.022;9.338;2022-08-19T11:57:52;24.60;1.00
20231;DHT22;10274;49.022;9.338;2022-08-19T12:00:19;24.50;1.00
20231;DHT22;10274;49.022;9.338;2022-08-19T12:02:46;24.40;1.00
20231;DHT22;10274;49.022;9.338;2022-08-19T12:05:12;24.40;1.00
20231;DHT22;10274;49.022;9.338;2022-08-19T12:07:39;24.40;1.00
20231;DHT22;10274;49.022;9.338;2022-08-19T12:10:08;24.40;1.00
20231;DHT22;10274;49.022;9.338;2022-08-19T12:12:35;24.30;99.90
20231;DHT22;10274;49.022;9.338;2022-08-19T12:15:08;24.30;99.90
20231;DHT22;10274;49.022;9.338;2022-08-19T12:17:37;24.20;99.90
20231;DHT22;10274;49.022;9.338;2022-08-19T12:20:08;24.20;99.90
20231;DHT22;10274;49.022;9.338;2022-08-19T12:22:36;24.30;99.90
20231;DHT22;10274;49.022;9.338;2022-08-19T12:25:04;24.30;99.90
20231;DHT22;10274;49.022;9.338;2022-08-19T12:27:32;24.30;99.90
20231;DHT22;10274;49.022;9.338;2022-08-19T12:30:00;24.40;99.90
20231;DHT22;10274;49.022;9.338;2022-08-19T12:32:27;24.50;36.40
20231;DHT22;10274;49.022;9.338;2022-08-19T12:34:54;24.40;99.90
20231;DHT22;10274;49.022;9.338;2022-08-19T12:37:21;24.50;99.90
20231;DHT22;10274;49.022;9.338;2022-08-19T12:39:48;24.50;1.00
20231;DHT22;10274;49.022;9.338;2022-08-19T12:42:15;24.50;47.60
20231;DHT22;10274;49.022;9.338;2022-08-19T12:44:44;24.40;1.00
20231;DHT22;10274;49.022;9.338;2022-08-19T12:47:12;24.30;1.00
20231;DHT22;10274;49.022;9.338;2022-08-19T12:49:40;24.30;1.00
20231;DHT22;10274;49.022;9.338;2022-08-19T12:52:07;24.30;1.00
20231;DHT22;10274;49.022;9.338;2022-08-19T12:54:34;24.30;1.00
20231;DHT22;10274;49.022;9.338;2022-08-19T12:57:05;24.40;1.00
20231;DHT22;10274;49.022;9.338;2022-08-19T12:59:33;24.40;1.00
20231;DHT22;10274;49.022;9.338;2022-08-19T13:02:01;24.40;1.00
20231;DHT22;10274;49.022;9.338;2022-08-19T13:04:27;24.60;1.00
20231;DHT22;10274;49.022;9.338;2022-08-19T13:06:54;24.70;1.00
20231;DHT22;10274;49.022;9.338;2022-08-19T13:09:23;24.90;1.00
20231;DHT22;10274;49.022;9.338;2022-08-19T13:11:50;24.80;1.00
20231;DHT22;10274;49.022;9.338;2022-08-19T13:14:17;24.60;1.00
20231;DHT22;10274;49.022;9.338;2022-08-19T13:16:44;24.40;1.00
20231;DHT22;10274;49.022;9.338;2022-08-19T13:19:13;24.30;1.00
20231;DHT22;10274;49.022;9.338;2022-08-19T13:21:40;24.30;1.00
20231;DHT22;10274;49.022;9.338;2022-08-19T13:24:06;24.30;1.00
20231;DHT22;10274;49.022;9.338;2022-08-19T13:26:33;24.30;1.00
20231;DHT22;10274;49.022;9.338;2022-08-19T13:29:00;24.30;1.00
20231;DHT22;10274;49.022;9.338;2022-08-19T13:31:44;24.30;1.00
20231;DHT22;10274;49.022;9.338;2022-08-19T13:34:31;24.40;1.00
20231;DHT22;10274;49.022;9.338;2022-08-19T13:36:59;24.40;1.00
20231;DHT22;10274;49.022;9.338;2022-08-19T13:39:28;24.50;1.00
20231;DHT22;10274;49.022;9.338;2022-08-19T13:41:55;24.60;1.00
20231;DHT22;10274;49.022;9.338;2022-08-19T13:44:21;24.80;1.00
20231;DHT22;10274;49.022;9.338;2022-08-19T13:46:49;24.70;1.00
20231;DHT22;10274;49.022;9.338;2022-08-19T13:49:18;24.70;99.90
20231;DHT22;10274;49.022;9.338;2022-08-19T13:51:47;24.60;99.90
20231;DHT22;10274;49.022;9.338;2022-08-19T13:54:13;24.50;1.00
20231;DHT22;10274;49.022;9.338;2022-08-19T13:56:41;24.30;1.00
20231;DHT22;10274;49.022;9.338;2022-08-19T13:59:07;24.10;1.00
20231;DHT22;10274;49.022;9.338;2022-08-19T14:01:34;24.00;1.00
20231;DHT22;10274;49.022;9.338;2022-08-19T14:04:01;23.90;1.00
20231;DHT22;10274;49.022;9.338;2022-08-19T14:06:28;23.70;39.60
20231;DHT22;10274;49.022;9.338;2022-08-19T14:08:56;23.30;99.90
20231;DHT22;10274;49.022;9.338;2022-08-19T14:11:22;22.80;1.00
20231;DHT22;10274;49.022;9.338;2022-08-19T14:13:49;22.50;1.00
20231;DHT22;10274;49.022;9.338;2022-08-19T14:16:16;22.20;1.00
20231;DHT22;10274;49.022;9.338;2022-08-19T14:18:43;22.00;1.00
20231;DHT22;10274;49.022;9.338;2022-08-19T14:21:15;21.90;1.00
20231;DHT22;10274;49.022;9.338;2022-08-19T14:23:42;21.80;1.00
20231;DHT22;10274;49.022;9.338;2022-08-19T14:26:12;21.60;1.00
20231;DHT22;10274;49.022;9.338;2022-08-19T14:28:40;21.60;1.00
20231;DHT22;10274;49.022;9.338;2022-08-19T14:31:07;21.60;1.00
20231;DHT22;10274;49.022;9.338;2022-08-19T14:33:34;21.50;1.00
20231;DHT22;10274;49.022;9.338;2022-08-19T14:36:00;21.50;1.00
20231;DHT22;10274;49.022;9.338;2022-08-19T14:38:27;21.40;1.00
20231;DHT22;10274;49.022;9.338;2022-08-19T14:41:06;21.40;1.00
20231;DHT22;10274;49.022;9.338;2022-08-19T14:43:34;21.50;1.00
20231;DHT22;10274;49.022;9.338;2022-08-19T14:46:01;21.60;1.00
20231;DHT22;10274;49.022;9.338;2022-08-19T14:48:28;21.50;1.00
20231;DHT22;10274;49.022;9.338;2022-08-19T14:50:54;21.60;1.00
20231;DHT22;10274;49.022;9.338;2022-08-19T14:53:21;21.70;1.00
20231;DHT22;10274;49.022;9.338;2022-08-19T14:55:48;21.70;1.00
20231;DHT22;10274;49.022;9.338;2022-08-19T14:58:15;21.70;1.00
20231;DHT22;10274;49.022;9.338;2022-08-19T15:00:43;21.70;8.20
20231;DHT22;10274;49.022;9.338;2022-08-19T15:03:09;21.70;1.00
20231;DHT22;10274;49.022;9.338;2022-08-19T15:05:38;21.60;1.00
20231;DHT22;10274;49.022;9.338;2022-08-19T15:08:05;21.60;1.00
20231;DHT22;10274;49.022;9.338;2022-08-19T15:10:32;21.50;12.60
20231;DHT22;10274;49.022;9.338;2022-08-19T15:12:59;21.50;20.20
20231;DHT22;10274;49.022;9.338;2022-08-19T15:15:25;21.40;47.70
20231;DHT22;10274;49.022;9.338;2022-08-19T15:17:54;21.40;46.40
20231;DHT22;10274;49.022;9.338;2022-08-19T15:20:27;21.40;51.40
20231;DHT22;10274;49.022;9.338;2022-08-19T15:22:54;21.40;28.80
20231;DHT22;10274;49.022;9.338;2022-08-19T15:25:21;21.30;40.00
20231;DHT22;10274;49.022;9.338;2022-08-19T15:27:48;21.30;54.70
20231;DHT22;10274;49.022;9.338;2022-08-19T15:30:22;21.20;59.70
20231;DHT22;10274;49.022;9.338;2022-08-19T15:32:49;21.20;58.30
20231;DHT22;10274;49.022;9.338;2022-08-19T15:35:19;21.20;63.40
20231;DHT22;10274;49.022;9.338;2022-08-19T15:37:48;21.20;60.10
20231;DHT22;10274;49.022;9.338;2022-08-19T15:40:15;21.20;73.00
20231;DHT22;10274;49.022;9.338;2022-08-19T15:42:42;21.20;63.90
20231;DHT22;10274;49.022;9.338;2022-08-19T15:45:10;21.20;72.60
20231;DHT22;10274;49.022;9.338;2022-08-19T15:47:38;21.20;59.80
20231;DHT22;10274;49.022;9.338;2022-08-19T15:50:06;21.20;67.30